createdAt,value
2023-02-03T00:04:13.124Z,0.6
2023-02-03T01:27:07.178Z,0.5
2023-02-03T01:27:58.492Z,0.6
2023-02-03T01:29:00.406Z,0.6
2023-02-03T01:30:02.407Z,0.6
2023-02-03T01:31:04.519Z,0.6
2023-02-03T01:32:06.494Z,0.6
2023-02-03T01:33:08.405Z,0.6
2023-02-03T01:34:10.411Z,0.6
2023-02-03T01:35:12.450Z,0.6
2023-02-03T01:36:14.476Z,0.5
2023-02-03T01:37:16.406Z,0.5
2023-02-03T01:38:18.402Z,0.5
2023-02-03T01:39:21.403Z,0.6
2023-02-03T01:40:23.526Z,0.6
2023-02-03T01:41:25.445Z,0.6
2023-02-03T01:42:27.409Z,0.6
2023-02-03T01:43:29.406Z,0.6
2023-02-03T01:44:31.417Z,0.5
2023-02-03T01:45:33.409Z,0.5
2023-02-03T01:46:35.453Z,0.5
2023-02-03T01:47:37.417Z,0.5
2023-02-03T01:48:39.409Z,0.5
2023-02-03T01:49:41.412Z,0.5
2023-02-03T01:50:43.464Z,0.5
2023-02-03T01:51:45.414Z,0.6
2023-02-03T01:52:47.430Z,0.7
2023-02-03T01:53:49.419Z,0.7
2023-02-03T01:54:51.431Z,0.7
2023-02-03T01:55:53.470Z,0.7
2023-02-03T01:56:55.421Z,0.7
2023-02-03T01:57:58.460Z,0.7
2023-02-03T01:59:02.420Z,0.7
2023-02-03T02:00:04.430Z,0.7
2023-02-03T02:01:06.501Z,0.6
2023-02-03T02:02:08.459Z,0.6
2023-02-03T02:04:12.417Z,0.6
2023-02-03T02:05:14.428Z,0.5
2023-02-03T02:06:16.482Z,0.5
2023-02-03T02:07:19.433Z,0.5
2023-02-03T02:08:22.432Z,0.5
2023-02-03T02:09:24.456Z,0.5
2023-02-03T02:10:26.859Z,0.5
2023-02-03T02:11:28.460Z,0.5
2023-02-03T02:12:30.427Z,0.5
2023-02-03T02:13:32.477Z,0.5
2023-02-03T02:14:34.428Z,0.4
2023-02-03T02:15:36.515Z,0.4
2023-02-03T02:16:38.424Z,0.4
2023-02-03T02:17:40.432Z,0.5
2023-02-03T02:18:42.461Z,0.5
2023-02-03T02:19:44.473Z,0.5
2023-02-03T02:20:46.472Z,0.5
2023-02-03T02:22:13.162Z,0.5
2023-02-03T02:23:13.143Z,0.6
2023-02-03T02:24:13.170Z,0.6
2023-02-03T02:25:13.141Z,0.6
2023-02-03T02:26:13.152Z,0.6
2023-02-03T02:27:13.152Z,0.6
2023-02-03T02:28:13.219Z,0.6
2023-02-03T02:29:13.184Z,0.6
2023-02-03T02:30:13.143Z,0.6
2023-02-03T02:31:13.281Z,0.6
2023-02-03T02:32:13.147Z,0.7
2023-02-03T02:33:13.493Z,0.6
2023-02-03T02:34:15.465Z,0.6
2023-02-03T02:35:17.447Z,0.7
2023-02-03T02:36:20.487Z,0.8
2023-02-03T02:37:22.453Z,0.8
2023-02-03T02:38:24.446Z,0.9
2023-02-03T02:39:26.447Z,0.9
2023-02-03T02:40:28.723Z,0.9
2023-02-03T02:41:30.442Z,0.9
2023-02-03T02:42:33.462Z,0.8
2023-02-03T02:43:35.485Z,0.8
2023-02-03T02:44:37.449Z,0.8
2023-02-03T02:45:39.444Z,0.8
2023-02-03T02:46:41.480Z,0.7
2023-02-03T02:47:43.477Z,0.7
2023-02-03T02:48:45.470Z,0.7
2023-02-03T02:49:47.472Z,0.7
2023-02-03T02:50:49.460Z,0.6
2023-02-03T02:51:52.455Z,0.6
2023-02-03T02:52:54.457Z,0.6
2023-02-03T02:53:56.508Z,0.6
2023-02-03T02:54:58.466Z,0.5
2023-02-03T02:56:02.458Z,0.5
2023-02-03T02:57:04.455Z,0.5
2023-02-03T02:58:06.455Z,0.5
2023-02-03T02:59:08.524Z,0.5
2023-02-03T03:00:10.463Z,0.5
2023-02-03T03:01:12.577Z,0.5
2023-02-03T03:02:14.460Z,0.6
2023-02-03T03:03:16.454Z,0.6
2023-02-03T03:05:21.457Z,0.6
2023-02-03T03:06:23.456Z,0.6
2023-02-03T03:07:25.481Z,0.6
2023-02-03T03:08:27.463Z,0.5
2023-02-03T03:09:29.468Z,0.5
2023-02-03T03:10:31.481Z,0.5
2023-02-03T03:11:33.467Z,0.5
2023-02-03T03:12:35.466Z,0.5
2023-02-03T03:13:37.460Z,0.5
2023-02-03T03:14:40.467Z,0.5
2023-02-03T03:15:42.546Z,0.5
2023-02-03T03:16:44.514Z,0.5
2023-02-03T03:17:46.502Z,0.5
2023-02-03T03:18:48.469Z,0.5
2023-02-03T03:19:50.479Z,0.5
2023-02-03T03:20:52.478Z,0.5
2023-02-03T03:21:54.491Z,0.5
2023-02-03T03:22:56.473Z,0.5
2023-02-03T03:23:58.490Z,0.5
2023-02-03T03:25:02.486Z,0.6
2023-02-03T03:26:04.471Z,0.6
2023-02-03T03:27:06.494Z,0.6
2023-02-03T03:28:08.638Z,0.6
2023-02-03T03:29:10.465Z,0.6
2023-02-03T03:30:12.483Z,0.6
2023-02-03T03:32:16.598Z,0.5
2023-02-03T03:33:18.475Z,0.6
2023-02-03T03:34:20.485Z,0.6
2023-02-03T03:35:22.486Z,0.6
2023-02-03T03:36:25.479Z,0.6
2023-02-03T03:37:27.526Z,0.6
2023-02-03T03:38:29.483Z,0.6
2023-02-03T03:39:31.484Z,0.7
2023-02-03T03:40:33.483Z,0.8
2023-02-03T03:42:37.499Z,0.9
2023-02-03T03:43:39.482Z,0.9
2023-02-03T03:44:41.489Z,1
2023-02-03T03:45:43.503Z,1.1
2023-02-03T03:46:45.558Z,1.1
2023-02-03T03:47:47.561Z,1.3
2023-02-03T03:48:49.485Z,1.3
2023-02-03T03:49:52.533Z,1.3
2023-02-03T03:50:54.484Z,1.3
2023-02-03T03:51:56.502Z,1.3
2023-02-03T03:52:58.514Z,1.3
2023-02-03T03:54:02.518Z,1.4
2023-02-03T03:55:04.493Z,1.4
2023-02-03T03:56:06.492Z,1.5
2023-02-03T03:57:08.486Z,1.6
2023-02-03T03:58:10.509Z,1.6
2023-02-03T03:59:12.525Z,1.6
2023-02-03T04:00:14.522Z,1.6
2023-02-03T04:01:16.558Z,1.6
2023-02-03T04:02:18.528Z,1.7
2023-02-03T04:03:20.577Z,1.7
2023-02-03T04:04:23.494Z,1.7
2023-02-03T04:05:25.513Z,1.8
2023-02-03T04:06:27.515Z,1.8
2023-02-03T04:07:29.503Z,1.8
2023-02-03T04:08:31.502Z,1.8
2023-02-03T04:09:33.490Z,1.8
2023-02-03T04:10:35.512Z,1.8
2023-02-03T04:11:37.565Z,1.8
2023-02-03T04:12:39.509Z,1.9
2023-02-03T04:13:41.507Z,1.9
2023-02-03T04:14:43.503Z,1.9
2023-02-03T04:15:45.552Z,1.9
2023-02-03T04:16:47.561Z,1.9
2023-02-03T04:17:49.505Z,1.9
2023-02-03T04:18:51.504Z,1.9
2023-02-03T04:19:53.502Z,1.9
2023-02-03T04:20:55.526Z,1.9
2023-02-03T04:21:58.539Z,1.9
2023-02-03T04:23:01.519Z,1.9
2023-02-03T04:24:03.528Z,2
2023-02-03T04:25:05.515Z,2
2023-02-03T04:26:08.510Z,2
2023-02-03T04:27:10.517Z,2.1
2023-02-03T04:28:12.560Z,2.2
2023-02-03T04:29:14.559Z,2.2
2023-02-03T04:30:16.506Z,2.2
2023-02-03T04:31:18.689Z,2.1
2023-02-03T04:32:20.511Z,2.1
2023-02-03T04:33:22.515Z,2.2
2023-02-03T04:34:24.515Z,2.2
2023-02-03T04:35:26.565Z,2.2
2023-02-03T04:36:28.545Z,2.2
2023-02-03T04:37:30.517Z,2.2
2023-02-03T04:38:32.524Z,2.2
2023-02-03T04:39:34.521Z,2.2
2023-02-03T04:40:36.506Z,2.2
2023-02-03T04:41:38.554Z,2.2
2023-02-03T04:42:40.536Z,2.2
2023-02-03T04:43:43.518Z,2.2
2023-02-03T04:44:45.524Z,2.2
2023-02-03T04:45:47.630Z,2.2
2023-02-03T04:46:49.518Z,2.2
2023-02-03T04:47:54.123Z,2.2
2023-02-03T04:48:53.530Z,2.1
2023-02-03T04:49:55.525Z,2.1
2023-02-03T04:50:58.557Z,2.1
2023-02-03T04:52:01.527Z,2.2
2023-02-03T04:53:04.585Z,2.2
2023-02-03T04:54:06.530Z,2.3
2023-02-03T04:55:08.527Z,2.3
2023-02-03T04:56:10.539Z,2.3
2023-02-03T04:57:12.541Z,2.4
2023-02-03T04:59:16.551Z,2.4
2023-02-03T05:00:18.549Z,2.4
2023-02-03T05:01:20.658Z,2.4
2023-02-03T05:02:22.530Z,2.4
2023-02-03T05:03:26.274Z,2.4
2023-02-03T05:04:26.541Z,2.5
2023-02-03T05:05:28.538Z,2.5
2023-02-03T05:06:30.527Z,2.5
2023-02-03T05:07:32.565Z,2.6
2023-02-03T05:08:34.571Z,2.6
2023-02-03T05:09:36.534Z,2.6
2023-02-03T05:10:38.579Z,2.6
2023-02-03T05:11:40.533Z,2.7
2023-02-03T05:12:42.536Z,2.7
2023-02-03T05:13:44.537Z,2.7
2023-02-03T05:14:46.536Z,2.7
2023-02-03T05:15:48.581Z,2.7
2023-02-03T05:16:50.715Z,2.7
2023-02-03T05:17:52.562Z,2.7
2023-02-03T05:18:54.548Z,2.7
2023-02-03T05:19:56.542Z,2.7
2023-02-03T05:20:58.592Z,2.8
2023-02-03T05:22:01.571Z,2.8
2023-02-03T05:23:03.568Z,2.8
2023-02-03T05:24:05.566Z,2.8
2023-02-03T05:25:07.558Z,2.8
2023-02-03T05:26:09.575Z,2.8
2023-02-03T05:27:11.569Z,2.8
2023-02-03T05:28:13.610Z,2.8
2023-02-03T05:29:15.559Z,2.8
2023-02-03T05:30:17.566Z,2.8
2023-02-03T05:32:13.397Z,2.8
2023-02-03T05:33:13.252Z,2.8
2023-02-03T05:34:13.267Z,2.8
2023-02-03T05:35:13.253Z,2.8
2023-02-03T05:36:13.293Z,2.8
2023-02-03T05:37:13.257Z,2.8
2023-02-03T05:38:13.269Z,2.9
2023-02-03T05:39:13.262Z,2.8
2023-02-03T05:40:13.317Z,2.8
2023-02-03T05:41:13.307Z,2.8
2023-02-03T05:42:13.269Z,2.8
2023-02-03T05:43:13.258Z,2.8
2023-02-03T05:44:13.284Z,2.9
2023-02-03T05:45:13.279Z,2.8
2023-02-03T05:46:13.341Z,2.8
2023-02-03T05:47:13.309Z,2.8
2023-02-03T05:48:13.266Z,2.8
2023-02-03T05:49:13.278Z,2.8
2023-02-03T05:50:13.267Z,2.8
2023-02-03T05:51:13.264Z,2.9
2023-02-03T05:52:24.959Z,2.9
2023-02-03T05:53:13.263Z,2.9
2023-02-03T05:54:13.265Z,2.9
2023-02-03T05:55:13.270Z,2.9
2023-02-03T05:56:14.936Z,3
2023-02-03T05:57:17.915Z,3
2023-02-03T05:58:19.951Z,3
2023-02-03T05:59:21.922Z,3
2023-02-03T06:00:25.173Z,3
2023-02-03T06:01:26.912Z,3
2023-02-03T06:02:28.909Z,3
2023-02-03T06:03:31.015Z,3
2023-02-03T06:04:33.947Z,3
2023-02-03T06:05:35.923Z,3
2023-02-03T06:06:37.919Z,3
2023-02-03T06:07:40.909Z,3
2023-02-03T06:08:42.968Z,3
2023-02-03T06:09:44.914Z,3
2023-02-03T06:10:46.914Z,3
2023-02-03T06:11:48.950Z,3
2023-02-03T06:12:50.913Z,3
2023-02-03T06:13:52.996Z,3
2023-02-03T06:14:54.942Z,3
2023-02-03T06:15:56.931Z,3
2023-02-03T06:16:59.016Z,3
2023-02-03T06:18:01.925Z,3
2023-02-03T06:19:05.971Z,3.1
2023-02-03T06:20:07.925Z,3
2023-02-03T06:21:09.957Z,3.1
2023-02-03T06:22:11.921Z,3.1
2023-02-03T06:23:13.956Z,3
2023-02-03T06:24:15.964Z,3
2023-02-03T06:25:17.972Z,3
2023-02-03T06:26:19.938Z,3
2023-02-03T06:29:58.882Z,3
2023-02-03T06:29:59.407Z,3
2023-02-03T06:30:31.392Z,3
2023-02-03T06:31:33.069Z,3
2023-02-03T06:32:34.928Z,3
2023-02-03T11:47:01.124Z,3
2023-02-03T11:47:01.386Z,3
2023-02-03T11:48:25.525Z,3.8
2023-02-03T11:51:13.533Z,3.8
2023-02-03T11:52:35.136Z,3.8
2023-02-03T11:53:56.994Z,3.8
2023-02-03T11:54:39.128Z,3.8
2023-02-03T11:56:43.205Z,3.8
2023-02-03T11:57:45.145Z,3.8
2023-02-03T11:58:47.137Z,3.8
2023-02-03T13:47:24.074Z,3.8
2023-02-03T13:47:44.467Z,3.8
2023-02-03T13:49:13.571Z,4
2023-02-03T13:50:13.560Z,4
2023-02-03T13:52:15.952Z,4
2023-02-03T13:53:13.617Z,4
2023-02-03T13:55:13.566Z,4
2023-02-03T13:56:13.612Z,4
2023-02-03T13:57:13.603Z,3.9
2023-02-03T13:59:13.613Z,3.9
2023-02-03T14:01:13.589Z,3.9
2023-02-03T14:02:13.599Z,3.9
2023-02-03T14:03:13.635Z,3.9
2023-02-03T14:06:18.216Z,3.9
2023-02-03T14:07:24.387Z,3.9
2023-02-03T14:08:22.193Z,3.9
2023-02-03T14:12:13.678Z,3.9
2023-02-03T14:13:13.585Z,3.9
2023-02-03T14:14:13.647Z,3.9
2023-02-03T14:15:13.613Z,3.9
2023-02-03T14:16:42.298Z,3.9
2023-02-03T14:18:13.590Z,3.9
2023-02-03T14:19:13.608Z,3.9
2023-02-03T14:20:50.245Z,3.8
2023-02-03T14:21:52.251Z,3.9
2023-02-03T14:22:54.252Z,3.9
2023-02-03T14:24:59.228Z,3.8
2023-02-03T14:26:01.207Z,3.8
2023-02-03T14:27:04.232Z,3.8
2023-02-03T14:28:06.558Z,3.8
2023-02-03T14:30:11.341Z,3.8
2023-02-03T14:31:13.332Z,3.8
2023-02-03T14:32:15.241Z,3.8
2023-02-03T14:33:17.224Z,3.8
2023-02-03T14:34:19.228Z,3.8
2023-02-03T14:35:21.223Z,3.8
2023-02-03T14:36:23.217Z,3.8
2023-02-03T14:38:13.674Z,3.8
2023-02-03T14:40:13.733Z,3.8
2023-02-03T14:41:13.601Z,3.8
2023-02-03T14:42:13.605Z,3.8
2023-02-03T14:43:13.747Z,3.9
2023-02-03T14:45:13.639Z,3.9
2023-02-03T14:46:13.744Z,3.9
2023-02-03T14:49:53.215Z,3.9
2023-02-03T14:50:55.277Z,3.9
2023-02-03T14:51:57.228Z,3.9
2023-02-03T14:52:59.220Z,3.9
2023-02-03T14:54:01.223Z,3.9
2023-02-03T14:55:03.230Z,4
2023-02-03T14:56:06.241Z,4
2023-02-03T14:57:08.226Z,4
2023-02-03T14:58:10.227Z,4
2023-02-03T14:59:12.276Z,4
2023-02-03T15:00:14.232Z,3.9
2023-02-03T15:01:16.300Z,3.9
2023-02-03T15:02:19.267Z,3.9
2023-02-03T15:03:21.230Z,3.9
2023-02-03T15:04:23.238Z,3.9
2023-02-03T15:05:25.343Z,3.9
2023-02-03T15:06:27.226Z,3.9
2023-02-03T15:07:30.253Z,3.9
2023-02-03T15:08:32.233Z,3.9
2023-02-03T15:09:34.249Z,4
2023-02-03T15:10:37.272Z,4
2023-02-03T15:11:40.233Z,4
2023-02-03T15:12:42.291Z,4
2023-02-03T15:13:44.243Z,4
2023-02-03T15:15:49.271Z,4
2023-02-03T15:16:51.323Z,4
2023-02-03T15:17:53.258Z,4
2023-02-03T15:18:56.263Z,4.1
2023-02-03T15:20:12.800Z,4.1
2023-02-03T15:21:00.266Z,4.1
2023-02-03T15:22:02.257Z,4.1
2023-02-03T15:23:04.245Z,4.1
2023-02-03T15:24:06.239Z,4.2
2023-02-03T15:25:08.242Z,4.2
2023-02-03T15:26:10.264Z,4.1
2023-02-03T15:27:12.240Z,4.1
2023-02-03T15:29:16.251Z,4.2
2023-02-03T15:30:18.329Z,4.2
2023-02-03T15:31:20.441Z,4.2
2023-02-03T15:32:22.294Z,4.1
2023-02-03T15:33:24.241Z,4.2
2023-02-03T15:34:26.248Z,4.2
2023-02-03T15:35:28.566Z,4.2
2023-02-03T15:36:30.302Z,4.2
2023-02-03T15:37:32.247Z,4.2
2023-02-03T15:38:34.364Z,4.2
2023-02-03T15:40:40.271Z,4.2
2023-02-03T15:41:42.246Z,4.2
2023-02-03T15:42:44.238Z,4.1
2023-02-03T15:43:46.276Z,4.2
2023-02-03T15:44:48.252Z,4.1
2023-02-03T15:45:50.254Z,4.1
2023-02-03T15:46:52.642Z,4.1
2023-02-03T15:48:13.643Z,4.1
2023-02-03T15:49:14.449Z,4.1
2023-02-03T15:50:13.646Z,4.1
2023-02-03T15:51:13.666Z,4.1
2023-02-03T15:52:13.719Z,4.1
2023-02-03T15:53:13.665Z,4.1
2023-02-03T15:54:13.651Z,4.1
2023-02-03T15:55:13.659Z,4.1
2023-02-03T15:56:13.661Z,4.1
2023-02-03T15:57:14.263Z,4.1
2023-02-03T15:58:16.280Z,4.1
2023-02-03T15:59:18.267Z,4
2023-02-03T16:01:22.379Z,4
2023-02-03T16:02:24.259Z,4
2023-02-03T16:03:26.312Z,4
2023-02-03T16:04:28.297Z,4
2023-02-03T16:05:30.880Z,4
2023-02-03T16:06:32.267Z,4
2023-02-03T16:07:34.298Z,4
2023-02-03T16:08:37.328Z,4
2023-02-03T16:09:40.310Z,3.9
2023-02-03T16:10:42.277Z,3.9
2023-02-03T16:11:44.281Z,3.9
2023-02-03T16:12:46.274Z,3.9
2023-02-03T16:13:48.324Z,4
2023-02-03T16:14:50.287Z,3.9
2023-02-03T16:15:52.289Z,3.9
2023-02-03T16:17:04.375Z,3.9
2023-02-03T16:17:56.282Z,3.9
2023-02-03T16:18:58.364Z,3.9
2023-02-03T16:20:00.283Z,3.9
2023-02-03T16:21:02.368Z,3.9
2023-02-03T16:22:04.276Z,3.9
2023-02-03T16:23:06.278Z,3.9
2023-02-03T16:24:09.356Z,3.9
2023-02-03T16:25:11.287Z,3.9
2023-02-03T16:26:14.284Z,3.9
2023-02-03T16:27:16.281Z,3.9
2023-02-03T16:28:18.392Z,3.9
2023-02-03T16:29:20.401Z,3.9
2023-02-03T16:30:23.273Z,3.9
2023-02-03T16:31:25.327Z,3.9
2023-02-03T16:32:28.280Z,3.9
2023-02-03T16:33:30.273Z,3.8
2023-02-03T16:34:32.434Z,3.8
2023-02-03T16:35:34.290Z,3.8
2023-02-03T16:36:37.298Z,3.9
2023-02-03T16:37:40.289Z,3.9
2023-02-03T16:39:45.371Z,3.8
2023-02-03T16:40:46.300Z,3.9
2023-02-03T16:41:48.311Z,3.9
2023-02-03T16:43:52.283Z,3.9
2023-02-03T16:44:54.344Z,3.9
2023-02-03T16:45:57.397Z,3.9
2023-02-03T16:46:59.309Z,3.9
2023-02-03T16:48:01.312Z,3.9
2023-02-03T16:58:54.581Z,3.8
2023-02-03T16:58:55.014Z,3.8
2023-02-03T17:01:54.240Z,3.9
2023-02-03T17:02:58.680Z,3.9
2023-02-03T17:03:59.149Z,3.9
2023-02-03T17:05:01.345Z,3.8
2023-02-03T17:06:03.187Z,3.8
2023-02-03T17:07:05.162Z,3.8
2023-02-03T17:08:07.146Z,3.8
2023-02-03T17:09:09.144Z,3.8
2023-02-03T17:10:11.249Z,3.8
2023-02-03T17:11:27.064Z,3.9
2023-02-03T17:12:16.134Z,3.8
2023-02-03T17:13:18.206Z,3.8
2023-02-03T17:14:20.158Z,3.8
2023-02-03T17:15:22.166Z,3.8
2023-02-03T17:16:24.205Z,3.8
2023-02-03T17:17:26.148Z,3.8
2023-02-03T17:18:28.167Z,3.8
2023-02-03T17:19:30.158Z,3.8
2023-02-03T17:20:32.201Z,3.8
2023-02-03T17:21:35.179Z,3.8
2023-02-03T17:22:38.155Z,3.8
2023-02-03T17:23:40.156Z,3.8
2023-02-03T17:24:42.155Z,3.8
2023-02-03T17:25:45.174Z,3.8
2023-02-03T17:26:47.168Z,3.8
2023-02-03T17:27:49.265Z,3.8
2023-02-03T17:28:51.157Z,3.8
2023-02-03T17:29:54.186Z,3.7
2023-02-03T17:30:57.195Z,3.7
2023-02-03T17:31:59.196Z,3.7
2023-02-03T17:33:01.218Z,3.7
2023-02-03T17:34:04.176Z,3.7
2023-02-03T17:35:06.168Z,3.7
2023-02-03T17:36:09.169Z,3.7
2023-02-03T17:37:11.166Z,3.7
2023-02-03T17:38:13.192Z,3.6
2023-02-03T17:53:44.204Z,3.5
2023-02-03T17:53:47.707Z,3.5
2023-02-03T17:54:46.164Z,3.5
2023-02-03T17:56:50.160Z,3.5
2023-02-03T17:57:54.233Z,3.5
2023-02-03T17:58:57.172Z,3.5
2023-02-03T17:59:59.221Z,3.5
2023-02-03T18:01:01.182Z,3.5
2023-02-03T18:02:03.208Z,3.5
2023-02-03T18:06:31.972Z,3.4
2023-02-03T18:06:32.686Z,3.4
2023-02-03T18:07:21.284Z,3.4
2023-02-03T18:08:25.224Z,3.4
2023-02-03T18:09:22.660Z,3.5
2023-02-03T19:17:11.210Z,3.5
2023-02-03T19:17:11.618Z,3.5
2023-02-03T19:17:21.335Z,3.5
2023-02-03T19:18:22.099Z,3.5
2023-02-03T19:19:24.130Z,3.5
2023-02-03T19:20:26.132Z,3.5
2023-02-03T19:21:28.114Z,3.5
2023-02-03T19:23:32.128Z,3.6
2023-02-03T19:24:34.513Z,3.6
2023-02-03T19:25:37.154Z,3.5
2023-02-03T19:26:39.151Z,3.5
2023-02-03T19:27:41.165Z,3.5
2023-02-03T19:29:39.469Z,3.5
2023-02-03T19:29:47.109Z,3.5
2023-02-03T19:31:06.915Z,3.5
2023-02-03T19:32:04.852Z,3.5
2023-02-03T19:32:54.114Z,3.5
2023-02-03T19:33:56.108Z,3.5
2023-02-03T19:36:01.180Z,3.5
2023-02-03T19:37:15.087Z,3.5
2023-02-03T19:38:05.113Z,3.5
2023-02-03T19:39:08.115Z,3.5
2023-02-03T19:40:10.173Z,3.5
2023-02-03T19:41:12.133Z,3.5
2023-02-03T19:42:14.161Z,3.5
2023-02-03T19:43:16.132Z,3.5
2023-02-03T19:44:18.125Z,3.5
2023-02-03T19:45:21.120Z,3.5
2023-02-03T19:46:24.138Z,3.5
2023-02-03T19:47:26.153Z,3.4
2023-02-03T19:48:28.136Z,3.4
2023-02-03T19:49:30.136Z,3.4
2023-02-03T19:50:32.424Z,3.4
2023-02-03T19:51:34.140Z,3.4
2023-02-03T19:52:36.127Z,3.4
2023-02-03T19:53:39.210Z,3.4
2023-02-03T19:54:41.126Z,3.4
2023-02-03T19:55:44.142Z,3.4
2023-02-03T19:56:47.155Z,3.4
2023-02-03T19:57:49.129Z,3.4
2023-02-03T19:58:51.204Z,3.4
2023-02-03T20:03:09.655Z,3.4
2023-02-03T20:03:10.138Z,3.4
2023-02-03T20:04:03.209Z,3.4
2023-02-03T20:05:05.199Z,3.3
2023-02-03T20:06:07.135Z,3.4
2023-02-03T20:07:09.116Z,3.4
2023-02-03T20:08:11.137Z,3.4
2023-02-03T20:09:13.147Z,3.4
2023-02-03T20:10:15.208Z,3.4
2023-02-03T20:11:17.186Z,3.4
2023-02-03T20:12:20.132Z,3.4
2023-02-03T20:13:22.131Z,3.4
2023-02-03T20:14:24.174Z,3.4
2023-02-03T20:15:26.156Z,3.4
2023-02-03T20:16:28.155Z,3.3
2023-02-03T20:17:30.139Z,3.3
2023-02-03T20:18:32.153Z,3.3
2023-02-03T20:19:34.122Z,3.3
2023-02-03T20:20:36.164Z,3.3
2023-02-03T20:21:38.718Z,3.3
2023-02-03T20:22:40.154Z,3.3
2023-02-03T20:23:42.159Z,3.3
2023-02-03T20:24:45.166Z,3.3
2023-02-03T20:25:48.260Z,3.3
2023-02-03T20:26:51.140Z,3.3
2023-02-03T20:27:53.190Z,3.2
2023-02-03T20:28:55.160Z,3.2
2023-02-03T20:29:57.141Z,3.2
2023-02-03T20:30:59.319Z,3.2
2023-02-03T20:32:01.220Z,3.2
2023-02-03T20:33:04.191Z,3.2
2023-02-03T20:34:06.165Z,3.2
2023-02-03T20:35:08.210Z,3.2
2023-02-03T20:36:11.549Z,3.2
2023-02-03T20:37:13.164Z,3.2
2023-02-03T20:38:15.187Z,3.2
2023-02-03T20:39:17.152Z,3.2
2023-02-03T20:40:20.262Z,3.2
2023-02-03T20:41:22.158Z,3.2
2023-02-03T20:42:24.151Z,3.2
2023-02-03T20:44:28.149Z,3.2
2023-02-03T20:45:31.432Z,3.2
2023-02-03T20:46:39.244Z,3.2
2023-02-03T20:47:36.230Z,3.2
2023-02-03T20:48:38.161Z,3.2
2023-02-03T20:49:40.176Z,3.2
2023-02-03T20:50:42.937Z,3.2
2023-02-03T20:51:45.182Z,3.2
2023-02-03T20:52:48.203Z,3.2
2023-02-03T20:54:21.522Z,3.2
2023-02-03T20:55:21.447Z,3.2
2023-02-03T20:56:21.425Z,3.2
2023-02-03T20:57:21.417Z,3.1
2023-02-03T20:58:21.413Z,3.1
2023-02-03T20:59:21.473Z,3.1
2023-02-03T21:01:06.418Z,3.1
2023-02-03T21:02:08.227Z,3.1
2023-02-03T21:03:10.172Z,3.1
2023-02-03T21:04:12.202Z,3.1
2023-02-03T21:05:15.179Z,3.1
2023-02-03T21:06:17.274Z,3.1
2023-02-03T21:07:20.189Z,3.1
2023-02-03T21:08:22.180Z,3.1
2023-02-03T21:09:24.182Z,3.1
2023-02-03T21:10:27.197Z,3.1
2023-02-03T21:11:29.192Z,3.1
2023-02-03T21:13:33.247Z,3.1
2023-02-03T21:14:51.043Z,3.1
2023-02-03T21:15:51.119Z,3.1
2023-02-03T21:17:21.437Z,3.1
2023-02-03T21:18:21.567Z,3.1
2023-02-03T21:19:22.020Z,3.1
2023-02-03T21:20:21.451Z,3.1
2023-02-03T21:21:21.547Z,3.1
2023-02-03T21:22:21.451Z,3.1
2023-02-03T21:23:21.645Z,3.1
2023-02-03T21:24:21.433Z,3.1
2023-02-03T21:25:21.445Z,3.1
2023-02-03T21:26:21.531Z,3.1
2023-02-03T21:27:21.454Z,3.1
2023-02-03T21:28:21.439Z,3.1
2023-02-03T21:29:21.444Z,3.1
2023-02-03T21:30:21.480Z,3.1
2023-02-03T21:31:21.520Z,3.1
2023-02-03T21:32:21.466Z,3.1
2023-02-03T21:33:21.445Z,3
2023-02-03T21:34:21.449Z,3
2023-02-03T21:35:23.222Z,3
2023-02-03T21:37:26.276Z,3
2023-02-03T21:38:28.241Z,3
2023-02-03T21:39:30.205Z,3.1
2023-02-03T21:40:32.515Z,3.1
2023-02-03T21:41:34.211Z,3.1
2023-02-03T21:43:38.201Z,3.1
2023-02-03T21:45:21.482Z,3.1
2023-02-03T21:46:21.450Z,3.1
2023-02-03T21:47:21.451Z,3.1
2023-02-03T21:48:21.508Z,3.1
2023-02-03T21:49:21.460Z,3.1
2023-02-03T21:50:21.462Z,3
2023-02-03T21:51:21.464Z,3
2023-02-03T21:53:21.617Z,3
2023-02-03T21:54:21.692Z,3
2023-02-03T21:55:21.557Z,3
2023-02-03T21:58:11.217Z,3
2023-02-03T22:02:33.223Z,2.9
2023-02-03T22:03:21.462Z,2.9
2023-02-03T22:04:23.216Z,2.9
2023-02-03T22:05:25.227Z,3
2023-02-03T22:06:27.234Z,3
2023-02-03T22:07:29.245Z,3
2023-02-03T22:08:31.260Z,3
2023-02-03T22:09:33.215Z,3
2023-02-03T22:10:35.239Z,3
2023-02-03T22:11:37.245Z,2.9
2023-02-03T22:12:39.229Z,2.9
2023-02-03T22:13:41.284Z,2.9
2023-02-03T22:14:43.236Z,3
2023-02-03T22:15:45.294Z,3
2023-02-03T22:17:39.140Z,3
2023-02-03T22:19:21.506Z,3
2023-02-03T22:21:21.505Z,3
2023-02-03T22:22:21.488Z,3
2023-02-03T22:23:21.470Z,2.9
2023-02-03T22:24:21.694Z,2.9
2023-02-03T22:25:21.476Z,2.9
2023-02-03T22:26:21.510Z,2.9
2023-02-03T22:27:21.471Z,2.9
2023-02-03T22:29:21.465Z,2.9
2023-02-03T22:30:21.480Z,2.9
2023-02-03T22:31:21.638Z,3
2023-02-03T22:32:21.476Z,2.9
2023-02-03T22:34:24.242Z,3
2023-02-03T22:35:26.230Z,3
2023-02-03T22:36:28.239Z,3
2023-02-03T22:37:30.232Z,3
2023-02-03T22:38:32.226Z,2.9
2023-02-03T22:39:34.253Z,2.9
2023-02-03T22:40:36.227Z,2.9
2023-02-03T22:41:38.231Z,2.9
2023-02-03T22:42:40.237Z,2.9
2023-02-03T22:43:42.255Z,2.9
2023-02-03T22:44:45.242Z,2.9
2023-02-03T22:45:48.306Z,2.9
2023-02-03T22:46:50.236Z,2.9
2023-02-03T22:47:52.241Z,2.9
2023-02-03T22:48:54.285Z,2.8
2023-02-03T22:49:56.289Z,2.8
2023-02-03T22:50:58.277Z,2.8
2023-02-03T22:52:00.230Z,2.8
2023-02-03T22:53:02.242Z,2.8
2023-02-03T22:55:06.274Z,2.7
2023-02-03T22:56:08.242Z,2.7
2023-02-03T22:57:11.258Z,2.7
2023-02-03T22:58:13.243Z,2.7
2023-02-03T22:59:16.274Z,2.7
2023-02-03T23:00:18.251Z,2.7
2023-02-03T23:01:20.238Z,2.7
2023-02-03T23:02:22.239Z,2.7
2023-02-03T23:03:24.351Z,2.7
2023-02-03T23:04:26.292Z,2.7
2023-02-03T23:05:28.346Z,2.7
2023-02-03T23:06:31.245Z,2.7
2023-02-03T23:07:33.238Z,2.7
2023-02-03T23:08:35.244Z,2.7
2023-02-03T23:09:37.245Z,2.7
2023-02-03T23:10:39.298Z,2.7
2023-02-03T23:11:41.286Z,2.7
2023-02-03T23:12:45.271Z,2.7
2023-02-03T23:13:48.248Z,2.7
2023-02-03T23:14:50.253Z,2.7
2023-02-03T23:15:52.306Z,2.7
2023-02-03T23:16:54.251Z,2.7
2023-02-03T23:17:56.310Z,2.7
2023-02-03T23:18:58.253Z,2.7
2023-02-03T23:20:00.261Z,2.6
2023-02-03T23:21:02.249Z,2.7
2023-02-03T23:22:04.261Z,2.7
2023-02-03T23:23:06.285Z,2.7
2023-02-03T23:24:08.284Z,2.7
2023-02-03T23:25:11.309Z,2.6
2023-02-03T23:26:13.260Z,2.7
2023-02-03T23:27:15.285Z,2.7
2023-02-03T23:28:17.343Z,2.7
2023-02-03T23:29:19.311Z,2.6
2023-02-03T23:30:22.269Z,2.7
2023-02-03T23:31:24.324Z,2.7
2023-02-03T23:32:26.289Z,2.6
2023-02-03T23:33:28.266Z,2.6
2023-02-03T23:35:33.262Z,2.6
2023-02-03T23:36:35.263Z,2.6
2023-02-03T23:37:37.313Z,2.6
2023-02-03T23:38:39.310Z,2.6
2023-02-03T23:39:41.266Z,2.6
2023-02-03T23:40:43.271Z,2.6
2023-02-03T23:41:45.331Z,2.6
2023-02-03T23:42:48.327Z,2.6
2023-02-03T23:43:50.266Z,2.6
2023-02-03T23:44:52.280Z,2.6
2023-02-03T23:45:55.361Z,2.6
2023-02-03T23:46:57.284Z,2.6
2023-02-03T23:47:59.278Z,2.6
2023-02-03T23:49:02.277Z,2.6
2023-02-03T23:50:04.300Z,2.6
2023-02-03T23:51:21.516Z,2.6
2023-02-03T23:52:21.534Z,2.5
2023-02-03T23:53:39.125Z,2.5
2023-02-03T23:55:21.520Z,2.5
2023-02-03T23:56:21.514Z,2.5
2023-02-03T23:57:21.526Z,2.5
2023-02-03T23:58:22.270Z,2.5
2023-02-03T23:59:24.277Z,2.5
